sensor_id;sensor_type;location;lat;lon;timestamp;P1;durP1;ratioP1;P2;durP2;ratioP2
21354;SDS011;10835;50.148;19.760;2023-02-28T00:01:29;6.07;;;3.20;;
21354;SDS011;10835;50.148;19.760;2023-02-28T00:03:58;7.03;;;3.40;;
21354;SDS011;10835;50.148;19.760;2023-02-28T00:06:26;5.68;;;3.22;;
21354;SDS011;10835;50.148;19.760;2023-02-28T00:08:54;6.18;;;3.60;;
21354;SDS011;10835;50.148;19.760;2023-02-28T00:11:23;6.55;;;3.42;;
21354;SDS011;10835;50.148;19.760;2023-02-28T00:13:53;7.63;;;3.67;;
21354;SDS011;10835;50.148;19.760;2023-02-28T00:16:21;9.60;;;3.33;;
21354;SDS011;10835;50.148;19.760;2023-02-28T00:18:51;7.65;;;3.95;;
21354;SDS011;10835;50.148;19.760;2023-02-28T00:21:19;8.98;;;3.53;;
21354;SDS011;10835;50.148;19.760;2023-02-28T00:23:48;6.30;;;3.47;;
21354;SDS011;10835;50.148;19.760;2023-02-28T00:26:16;8.75;;;3.78;;
21354;SDS011;10835;50.148;19.760;2023-02-28T00:28:48;9.82;;;3.33;;
21354;SDS011;10835;50.148;19.760;2023-02-28T00:31:16;9.30;;;3.63;;
21354;SDS011;10835;50.148;19.760;2023-02-28T00:33:46;5.50;;;3.08;;
21354;SDS011;10835;50.148;19.760;2023-02-28T00:36:15;7.95;;;3.92;;
21354;SDS011;10835;50.148;19.760;2023-02-28T00:38:47;6.07;;;3.90;;
21354;SDS011;10835;50.148;19.760;2023-02-28T00:41:15;7.90;;;3.65;;
21354;SDS011;10835;50.148;19.760;2023-02-28T00:43:43;6.43;;;3.50;;
21354;SDS011;10835;50.148;19.760;2023-02-28T00:46:11;8.73;;;4.22;;
21354;SDS011;10835;50.148;19.760;2023-02-28T00:48:40;9.10;;;3.25;;
21354;SDS011;10835;50.148;19.760;2023-02-28T00:51:08;6.03;;;3.30;;
21354;SDS011;10835;50.148;19.760;2023-02-28T00:53:37;6.60;;;3.35;;
21354;SDS011;10835;50.148;19.760;2023-02-28T00:56:06;9.98;;;4.07;;
21354;SDS011;10835;50.148;19.760;2023-02-28T00:58:34;9.40;;;3.60;;
21354;SDS011;10835;50.148;19.760;2023-02-28T01:01:03;5.45;;;3.17;;
21354;SDS011;10835;50.148;19.760;2023-02-28T01:03:31;7.47;;;3.80;;
21354;SDS011;10835;50.148;19.760;2023-02-28T01:05:59;4.75;;;3.25;;
21354;SDS011;10835;50.148;19.760;2023-02-28T01:08:28;8.80;;;3.88;;
21354;SDS011;10835;50.148;19.760;2023-02-28T01:10:57;10.63;;;4.10;;
21354;SDS011;10835;50.148;19.760;2023-02-28T01:13:34;9.25;;;3.67;;
21354;SDS011;10835;50.148;19.760;2023-02-28T01:16:05;7.93;;;4.25;;
21354;SDS011;10835;50.148;19.760;2023-02-28T01:18:34;9.18;;;4.10;;
21354;SDS011;10835;50.148;19.760;2023-02-28T01:21:03;9.93;;;4.28;;
21354;SDS011;10835;50.148;19.760;2023-02-28T01:23:32;9.68;;;3.70;;
21354;SDS011;10835;50.148;19.760;2023-02-28T01:26:04;13.57;;;4.70;;
21354;SDS011;10835;50.148;19.760;2023-02-28T01:28:33;12.20;;;4.53;;
21354;SDS011;10835;50.148;19.760;2023-02-28T01:31:02;10.77;;;4.18;;
21354;SDS011;10835;50.148;19.760;2023-02-28T01:33:33;7.40;;;3.50;;
21354;SDS011;10835;50.148;19.760;2023-02-28T01:36:03;13.63;;;4.32;;
21354;SDS011;10835;50.148;19.760;2023-02-28T01:38:34;12.02;;;4.70;;
21354;SDS011;10835;50.148;19.760;2023-02-28T01:41:08;12.55;;;5.20;;
21354;SDS011;10835;50.148;19.760;2023-02-28T01:43:58;13.32;;;5.05;;
21354;SDS011;10835;50.148;19.760;2023-02-28T01:46:30;10.07;;;4.15;;
21354;SDS011;10835;50.148;19.760;2023-02-28T01:49:00;11.73;;;5.35;;
21354;SDS011;10835;50.148;19.760;2023-02-28T01:51:34;10.05;;;4.63;;
21354;SDS011;10835;50.148;19.760;2023-02-28T01:54:07;10.57;;;4.78;;
21354;SDS011;10835;50.148;19.760;2023-02-28T01:56:43;7.95;;;4.15;;
21354;SDS011;10835;50.148;19.760;2023-02-28T01:59:17;11.35;;;4.55;;
21354;SDS011;10835;50.148;19.760;2023-02-28T02:01:51;8.27;;;3.97;;
21354;SDS011;10835;50.148;19.760;2023-02-28T02:04:21;9.88;;;4.32;;
21354;SDS011;10835;50.148;19.760;2023-02-28T02:06:52;7.30;;;3.70;;
21354;SDS011;10835;50.148;19.760;2023-02-28T02:09:21;11.65;;;4.35;;
21354;SDS011;10835;50.148;19.760;2023-02-28T02:11:53;9.30;;;4.63;;
21354;SDS011;10835;50.148;19.760;2023-02-28T02:14:28;11.38;;;4.72;;
21354;SDS011;10835;50.148;19.760;2023-02-28T02:17:15;9.43;;;4.53;;
21354;SDS011;10835;50.148;19.760;2023-02-28T02:26:03;13.75;;;5.25;;
21354;SDS011;10835;50.148;19.760;2023-02-28T02:29:02;19.75;;;6.05;;
21354;SDS011;10835;50.148;19.760;2023-02-28T02:32:02;10.35;;;4.28;;
21354;SDS011;10835;50.148;19.760;2023-02-28T02:34:53;8.60;;;4.38;;
21354;SDS011;10835;50.148;19.760;2023-02-28T02:37:31;12.88;;;4.80;;
21354;SDS011;10835;50.148;19.760;2023-02-28T02:40:08;9.80;;;4.30;;
21354;SDS011;10835;50.148;19.760;2023-02-28T02:42:42;7.10;;;3.78;;
21354;SDS011;10835;50.148;19.760;2023-02-28T02:45:19;10.13;;;4.35;;
21354;SDS011;10835;50.148;19.760;2023-02-28T02:47:53;10.82;;;3.78;;
21354;SDS011;10835;50.148;19.760;2023-02-28T02:50:25;11.25;;;4.82;;
21354;SDS011;10835;50.148;19.760;2023-02-28T02:53:00;11.73;;;4.38;;
21354;SDS011;10835;50.148;19.760;2023-02-28T02:55:31;9.80;;;4.68;;
21354;SDS011;10835;50.148;19.760;2023-02-28T02:58:05;9.23;;;4.13;;
21354;SDS011;10835;50.148;19.760;2023-02-28T03:00:39;12.40;;;4.55;;
21354;SDS011;10835;50.148;19.760;2023-02-28T03:03:11;8.77;;;3.97;;
21354;SDS011;10835;50.148;19.760;2023-02-28T03:05:44;10.10;;;4.70;;
21354;SDS011;10835;50.148;19.760;2023-02-28T03:08:15;10.48;;;4.25;;
21354;SDS011;10835;50.148;19.760;2023-02-28T03:10:44;8.55;;;4.07;;
21354;SDS011;10835;50.148;19.760;2023-02-28T03:13:23;9.80;;;3.85;;
21354;SDS011;10835;50.148;19.760;2023-02-28T03:16:14;5.32;;;3.58;;
21354;SDS011;10835;50.148;19.760;2023-02-28T03:19:02;8.77;;;3.75;;
21354;SDS011;10835;50.148;19.760;2023-02-28T03:21:56;12.43;;;3.78;;
21354;SDS011;10835;50.148;19.760;2023-02-28T03:24:34;10.80;;;4.22;;
21354;SDS011;10835;50.148;19.760;2023-02-28T03:27:11;8.27;;;3.75;;
21354;SDS011;10835;50.148;19.760;2023-02-28T03:29:45;8.43;;;3.92;;
21354;SDS011;10835;50.148;19.760;2023-02-28T03:32:20;8.27;;;3.50;;
21354;SDS011;10835;50.148;19.760;2023-02-28T03:34:54;10.85;;;4.60;;
21354;SDS011;10835;50.148;19.760;2023-02-28T03:37:28;8.60;;;3.85;;
21354;SDS011;10835;50.148;19.760;2023-02-28T03:39:58;9.38;;;4.22;;
21354;SDS011;10835;50.148;19.760;2023-02-28T03:42:33;11.68;;;4.43;;
21354;SDS011;10835;50.148;19.760;2023-02-28T03:45:04;10.10;;;4.32;;
21354;SDS011;10835;50.148;19.760;2023-02-28T03:47:38;10.85;;;4.63;;
21354;SDS011;10835;50.148;19.760;2023-02-28T03:50:10;9.25;;;3.80;;
21354;SDS011;10835;50.148;19.760;2023-02-28T03:52:47;7.80;;;3.90;;
21354;SDS011;10835;50.148;19.760;2023-02-28T03:55:17;8.00;;;4.03;;
21354;SDS011;10835;50.148;19.760;2023-02-28T03:57:50;9.45;;;3.38;;
21354;SDS011;10835;50.148;19.760;2023-02-28T04:00:25;9.20;;;4.15;;
21354;SDS011;10835;50.148;19.760;2023-02-28T04:02:57;15.38;;;6.40;;
21354;SDS011;10835;50.148;19.760;2023-02-28T04:05:26;11.43;;;5.22;;
21354;SDS011;10835;50.148;19.760;2023-02-28T04:08:01;10.90;;;4.85;;
21354;SDS011;10835;50.148;19.760;2023-02-28T04:10:31;8.70;;;4.63;;
21354;SDS011;10835;50.148;19.760;2023-02-28T04:12:59;8.13;;;4.45;;
21354;SDS011;10835;50.148;19.760;2023-02-28T04:15:28;13.43;;;5.07;;
21354;SDS011;10835;50.148;19.760;2023-02-28T04:17:56;12.75;;;4.40;;
21354;SDS011;10835;50.148;19.760;2023-02-28T04:20:24;10.45;;;5.07;;
21354;SDS011;10835;50.148;19.760;2023-02-28T04:22:52;9.52;;;4.55;;
21354;SDS011;10835;50.148;19.760;2023-02-28T04:25:22;11.23;;;4.65;;
21354;SDS011;10835;50.148;19.760;2023-02-28T04:27:50;12.60;;;5.30;;
21354;SDS011;10835;50.148;19.760;2023-02-28T04:30:18;14.85;;;5.45;;
21354;SDS011;10835;50.148;19.760;2023-02-28T04:32:47;11.60;;;5.07;;
21354;SDS011;10835;50.148;19.760;2023-02-28T04:35:15;16.17;;;4.95;;
21354;SDS011;10835;50.148;19.760;2023-02-28T04:37:43;11.52;;;5.30;;
21354;SDS011;10835;50.148;19.760;2023-02-28T04:40:11;12.23;;;5.57;;
21354;SDS011;10835;50.148;19.760;2023-02-28T04:42:41;15.25;;;5.93;;
21354;SDS011;10835;50.148;19.760;2023-02-28T04:45:09;15.50;;;5.88;;
21354;SDS011;10835;50.148;19.760;2023-02-28T04:47:38;11.88;;;5.47;;
21354;SDS011;10835;50.148;19.760;2023-02-28T04:50:06;12.38;;;5.45;;
21354;SDS011;10835;50.148;19.760;2023-02-28T04:52:35;16.42;;;4.97;;
21354;SDS011;10835;50.148;19.760;2023-02-28T04:55:04;14.98;;;5.78;;
21354;SDS011;10835;50.148;19.760;2023-02-28T04:57:33;13.20;;;5.15;;
21354;SDS011;10835;50.148;19.760;2023-02-28T05:00:03;11.23;;;5.00;;
21354;SDS011;10835;50.148;19.760;2023-02-28T05:02:37;10.05;;;5.25;;
21354;SDS011;10835;50.148;19.760;2023-02-28T05:05:06;12.93;;;5.72;;
21354;SDS011;10835;50.148;19.760;2023-02-28T05:07:34;12.18;;;5.88;;
21354;SDS011;10835;50.148;19.760;2023-02-28T05:10:03;9.57;;;5.15;;
21354;SDS011;10835;50.148;19.760;2023-02-28T05:12:32;10.57;;;5.60;;
21354;SDS011;10835;50.148;19.760;2023-02-28T05:15:00;14.35;;;6.22;;
21354;SDS011;10835;50.148;19.760;2023-02-28T05:17:30;15.32;;;5.50;;
21354;SDS011;10835;50.148;19.760;2023-02-28T05:19:58;14.27;;;6.03;;
21354;SDS011;10835;50.148;19.760;2023-02-28T05:22:41;9.85;;;4.80;;
21354;SDS011;10835;50.148;19.760;2023-02-28T05:25:11;16.85;;;5.32;;
21354;SDS011;10835;50.148;19.760;2023-02-28T05:27:41;13.60;;;6.03;;
21354;SDS011;10835;50.148;19.760;2023-02-28T05:30:10;16.73;;;5.65;;
21354;SDS011;10835;50.148;19.760;2023-02-28T05:32:40;14.27;;;5.70;;
21354;SDS011;10835;50.148;19.760;2023-02-28T05:35:09;13.38;;;5.18;;
21354;SDS011;10835;50.148;19.760;2023-02-28T05:37:38;11.48;;;5.10;;
21354;SDS011;10835;50.148;19.760;2023-02-28T05:40:07;10.90;;;5.47;;
21354;SDS011;10835;50.148;19.760;2023-02-28T05:42:37;15.27;;;6.47;;
21354;SDS011;10835;50.148;19.760;2023-02-28T05:45:06;13.95;;;5.50;;
21354;SDS011;10835;50.148;19.760;2023-02-28T05:47:35;14.88;;;6.32;;
21354;SDS011;10835;50.148;19.760;2023-02-28T05:50:05;19.58;;;7.85;;
21354;SDS011;10835;50.148;19.760;2023-02-28T05:52:35;17.08;;;7.03;;
21354;SDS011;10835;50.148;19.760;2023-02-28T05:55:04;14.15;;;7.07;;
21354;SDS011;10835;50.148;19.760;2023-02-28T05:57:33;18.20;;;8.73;;
21354;SDS011;10835;50.148;19.760;2023-02-28T06:00:01;15.40;;;6.78;;
21354;SDS011;10835;50.148;19.760;2023-02-28T06:02:38;15.27;;;6.50;;
21354;SDS011;10835;50.148;19.760;2023-02-28T06:05:09;13.50;;;5.47;;
21354;SDS011;10835;50.148;19.760;2023-02-28T06:07:41;10.90;;;5.72;;
21354;SDS011;10835;50.148;19.760;2023-02-28T06:10:10;15.13;;;6.30;;
21354;SDS011;10835;50.148;19.760;2023-02-28T06:12:38;11.23;;;4.72;;
21354;SDS011;10835;50.148;19.760;2023-02-28T06:15:09;12.00;;;6.13;;
21354;SDS011;10835;50.148;19.760;2023-02-28T06:17:40;11.48;;;5.78;;
21354;SDS011;10835;50.148;19.760;2023-02-28T06:20:12;13.93;;;6.25;;
21354;SDS011;10835;50.148;19.760;2023-02-28T06:22:40;16.92;;;6.60;;
21354;SDS011;10835;50.148;19.760;2023-02-28T06:25:09;17.63;;;7.40;;
21354;SDS011;10835;50.148;19.760;2023-02-28T06:27:38;15.98;;;6.93;;
21354;SDS011;10835;50.148;19.760;2023-02-28T06:30:07;8.07;;;4.55;;
21354;SDS011;10835;50.148;19.760;2023-02-28T06:32:36;13.60;;;6.05;;
21354;SDS011;10835;50.148;19.760;2023-02-28T06:35:04;13.90;;;5.88;;
21354;SDS011;10835;50.148;19.760;2023-02-28T06:37:34;10.68;;;5.10;;
21354;SDS011;10835;50.148;19.760;2023-02-28T06:40:02;13.63;;;6.63;;
21354;SDS011;10835;50.148;19.760;2023-02-28T06:42:33;17.35;;;6.05;;
21354;SDS011;10835;50.148;19.760;2023-02-28T06:45:02;12.65;;;6.30;;
21354;SDS011;10835;50.148;19.760;2023-02-28T06:47:35;22.08;;;7.25;;
21354;SDS011;10835;50.148;19.760;2023-02-28T06:50:05;15.32;;;7.10;;
21354;SDS011;10835;50.148;19.760;2023-02-28T06:52:36;14.02;;;5.95;;
21354;SDS011;10835;50.148;19.760;2023-02-28T06:55:05;13.43;;;6.38;;
21354;SDS011;10835;50.148;19.760;2023-02-28T06:57:34;13.50;;;6.13;;
21354;SDS011;10835;50.148;19.760;2023-02-28T07:00:04;14.30;;;5.85;;
21354;SDS011;10835;50.148;19.760;2023-02-28T07:02:34;15.77;;;6.10;;
21354;SDS011;10835;50.148;19.760;2023-02-28T07:05:04;13.85;;;5.55;;
21354;SDS011;10835;50.148;19.760;2023-02-28T07:07:33;12.32;;;5.50;;
21354;SDS011;10835;50.148;19.760;2023-02-28T07:10:06;17.95;;;6.35;;
21354;SDS011;10835;50.148;19.760;2023-02-28T07:12:34;12.60;;;5.30;;
21354;SDS011;10835;50.148;19.760;2023-02-28T07:15:05;11.65;;;5.78;;
21354;SDS011;10835;50.148;19.760;2023-02-28T07:17:34;16.95;;;6.70;;
21354;SDS011;10835;50.148;19.760;2023-02-28T07:20:02;10.35;;;5.82;;
21354;SDS011;10835;50.148;19.760;2023-02-28T07:22:33;13.63;;;6.25;;
21354;SDS011;10835;50.148;19.760;2023-02-28T07:25:01;13.65;;;5.45;;
21354;SDS011;10835;50.148;19.760;2023-02-28T07:27:31;15.25;;;6.85;;
21354;SDS011;10835;50.148;19.760;2023-02-28T07:30:00;15.55;;;6.60;;
21354;SDS011;10835;50.148;19.760;2023-02-28T07:32:32;13.07;;;6.78;;
21354;SDS011;10835;50.148;19.760;2023-02-28T07:35:04;16.05;;;6.03;;
21354;SDS011;10835;50.148;19.760;2023-02-28T07:37:33;14.40;;;6.68;;
21354;SDS011;10835;50.148;19.760;2023-02-28T07:40:03;16.77;;;6.57;;
21354;SDS011;10835;50.148;19.760;2023-02-28T07:42:36;12.32;;;6.18;;
21354;SDS011;10835;50.148;19.760;2023-02-28T07:45:05;13.82;;;7.10;;
21354;SDS011;10835;50.148;19.760;2023-02-28T07:47:34;13.75;;;6.55;;
21354;SDS011;10835;50.148;19.760;2023-02-28T07:50:03;19.50;;;7.40;;
21354;SDS011;10835;50.148;19.760;2023-02-28T07:52:32;22.35;;;7.53;;
21354;SDS011;10835;50.148;19.760;2023-02-28T07:55:01;11.32;;;6.20;;
21354;SDS011;10835;50.148;19.760;2023-02-28T07:57:29;11.88;;;5.93;;
21354;SDS011;10835;50.148;19.760;2023-02-28T08:00:00;12.93;;;6.68;;
21354;SDS011;10835;50.148;19.760;2023-02-28T08:02:36;17.30;;;7.13;;
21354;SDS011;10835;50.148;19.760;2023-02-28T08:05:05;28.63;;;10.98;;
21354;SDS011;10835;50.148;19.760;2023-02-28T08:07:34;27.42;;;10.98;;
21354;SDS011;10835;50.148;19.760;2023-02-28T08:10:03;23.15;;;8.88;;
21354;SDS011;10835;50.148;19.760;2023-02-28T08:12:32;59.47;;;19.77;;
21354;SDS011;10835;50.148;19.760;2023-02-28T08:15:02;89.47;;;26.33;;
21354;SDS011;10835;50.148;19.760;2023-02-28T08:17:33;20.02;;;8.18;;
21354;SDS011;10835;50.148;19.760;2023-02-28T08:20:01;15.48;;;7.15;;
21354;SDS011;10835;50.148;19.760;2023-02-28T08:22:30;21.33;;;8.93;;
21354;SDS011;10835;50.148;19.760;2023-02-28T08:24:58;41.38;;;16.08;;
21354;SDS011;10835;50.148;19.760;2023-02-28T08:27:26;31.52;;;12.30;;
21354;SDS011;10835;50.148;19.760;2023-02-28T08:29:55;25.33;;;9.70;;
21354;SDS011;10835;50.148;19.760;2023-02-28T08:32:26;14.43;;;4.95;;
21354;SDS011;10835;50.148;19.760;2023-02-28T08:34:56;16.33;;;6.38;;
21354;SDS011;10835;50.148;19.760;2023-02-28T08:37:24;10.15;;;5.00;;
21354;SDS011;10835;50.148;19.760;2023-02-28T08:39:53;11.50;;;5.43;;
21354;SDS011;10835;50.148;19.760;2023-02-28T08:42:22;12.18;;;4.63;;
21354;SDS011;10835;50.148;19.760;2023-02-28T08:44:51;10.02;;;4.28;;
21354;SDS011;10835;50.148;19.760;2023-02-28T08:47:19;10.35;;;5.03;;
21354;SDS011;10835;50.148;19.760;2023-02-28T08:49:49;15.55;;;4.65;;
21354;SDS011;10835;50.148;19.760;2023-02-28T08:52:17;8.93;;;4.57;;
21354;SDS011;10835;50.148;19.760;2023-02-28T08:54:45;6.32;;;3.00;;
21354;SDS011;10835;50.148;19.760;2023-02-28T08:57:13;8.60;;;3.83;;
21354;SDS011;10835;50.148;19.760;2023-02-28T08:59:42;9.70;;;3.55;;
21354;SDS011;10835;50.148;19.760;2023-02-28T09:02:11;5.53;;;2.70;;
21354;SDS011;10835;50.148;19.760;2023-02-28T09:04:40;6.18;;;3.05;;
21354;SDS011;10835;50.148;19.760;2023-02-28T09:07:13;5.97;;;3.15;;
21354;SDS011;10835;50.148;19.760;2023-02-28T09:09:41;4.45;;;2.83;;
21354;SDS011;10835;50.148;19.760;2023-02-28T09:12:20;4.75;;;2.58;;
21354;SDS011;10835;50.148;19.760;2023-02-28T09:14:49;6.70;;;2.70;;
21354;SDS011;10835;50.148;19.760;2023-02-28T09:17:17;5.25;;;2.70;;
21354;SDS011;10835;50.148;19.760;2023-02-28T09:19:47;6.50;;;2.67;;
21354;SDS011;10835;50.148;19.760;2023-02-28T09:22:17;4.47;;;3.10;;
21354;SDS011;10835;50.148;19.760;2023-02-28T09:24:46;6.50;;;2.88;;
21354;SDS011;10835;50.148;19.760;2023-02-28T09:27:14;4.30;;;2.92;;
21354;SDS011;10835;50.148;19.760;2023-02-28T09:29:42;7.93;;;3.15;;
21354;SDS011;10835;50.148;19.760;2023-02-28T09:32:10;5.35;;;2.95;;
21354;SDS011;10835;50.148;19.760;2023-02-28T09:34:39;7.65;;;2.72;;
21354;SDS011;10835;50.148;19.760;2023-02-28T09:37:07;5.10;;;2.53;;
21354;SDS011;10835;50.148;19.760;2023-02-28T09:39:37;5.85;;;3.15;;
21354;SDS011;10835;50.148;19.760;2023-02-28T09:42:05;4.85;;;3.05;;
21354;SDS011;10835;50.148;19.760;2023-02-28T09:44:44;3.97;;;2.50;;
21354;SDS011;10835;50.148;19.760;2023-02-28T09:47:17;5.13;;;2.47;;
21354;SDS011;10835;50.148;19.760;2023-02-28T09:49:54;6.97;;;2.75;;
21354;SDS011;10835;50.148;19.760;2023-02-28T09:52:24;4.72;;;2.72;;
21354;SDS011;10835;50.148;19.760;2023-02-28T09:54:59;4.50;;;3.03;;
21354;SDS011;10835;50.148;19.760;2023-02-28T09:57:38;7.57;;;3.05;;
21354;SDS011;10835;50.148;19.760;2023-02-28T10:00:13;4.60;;;3.10;;
21354;SDS011;10835;50.148;19.760;2023-02-28T10:02:58;7.28;;;3.10;;
21354;SDS011;10835;50.148;19.760;2023-02-28T10:05:39;8.38;;;3.47;;
21354;SDS011;10835;50.148;19.760;2023-02-28T10:08:14;7.35;;;3.08;;
21354;SDS011;10835;50.148;19.760;2023-02-28T10:10:45;4.43;;;2.72;;
21354;SDS011;10835;50.148;19.760;2023-02-28T10:13:18;4.43;;;2.80;;
21354;SDS011;10835;50.148;19.760;2023-02-28T10:15:52;4.85;;;3.00;;
21354;SDS011;10835;50.148;19.760;2023-02-28T10:18:27;5.80;;;3.00;;
21354;SDS011;10835;50.148;19.760;2023-02-28T10:21:00;6.22;;;3.28;;
21354;SDS011;10835;50.148;19.760;2023-02-28T10:23:34;4.47;;;3.15;;
21354;SDS011;10835;50.148;19.760;2023-02-28T10:26:09;8.98;;;3.13;;
21354;SDS011;10835;50.148;19.760;2023-02-28T10:28:42;4.80;;;2.33;;
21354;SDS011;10835;50.148;19.760;2023-02-28T10:31:14;3.05;;;2.08;;
21354;SDS011;10835;50.148;19.760;2023-02-28T10:33:46;4.32;;;2.70;;
21354;SDS011;10835;50.148;19.760;2023-02-28T10:36:16;6.45;;;3.13;;
21354;SDS011;10835;50.148;19.760;2023-02-28T10:38:46;8.88;;;4.10;;
21354;SDS011;10835;50.148;19.760;2023-02-28T10:41:26;5.50;;;3.58;;
21354;SDS011;10835;50.148;19.760;2023-02-28T10:44:12;7.45;;;3.50;;
21354;SDS011;10835;50.148;19.760;2023-02-28T10:46:42;5.75;;;3.00;;
21354;SDS011;10835;50.148;19.760;2023-02-28T10:49:14;5.78;;;2.90;;
21354;SDS011;10835;50.148;19.760;2023-02-28T10:51:48;4.28;;;3.20;;
21354;SDS011;10835;50.148;19.760;2023-02-28T10:54:20;6.07;;;3.35;;
21354;SDS011;10835;50.148;19.760;2023-02-28T10:57:14;8.98;;;3.60;;
21354;SDS011;10835;50.148;19.760;2023-02-28T10:59:44;8.65;;;3.53;;
21354;SDS011;10835;50.148;19.760;2023-02-28T11:02:30;6.00;;;3.20;;
21354;SDS011;10835;50.148;19.760;2023-02-28T11:07:56;6.78;;;3.42;;
21354;SDS011;10835;50.148;19.760;2023-02-28T11:10:30;6.05;;;3.10;;
21354;SDS011;10835;50.148;19.760;2023-02-28T11:13:02;6.80;;;3.08;;
21354;SDS011;10835;50.148;19.760;2023-02-28T11:15:32;8.00;;;3.63;;
21354;SDS011;10835;50.148;19.760;2023-02-28T11:18:02;4.70;;;3.05;;
21354;SDS011;10835;50.148;19.760;2023-02-28T11:20:47;5.40;;;3.15;;
21354;SDS011;10835;50.148;19.760;2023-02-28T11:23:17;5.70;;;3.40;;
21354;SDS011;10835;50.148;19.760;2023-02-28T11:25:48;5.75;;;3.20;;
21354;SDS011;10835;50.148;19.760;2023-02-28T11:28:28;5.38;;;3.55;;
21354;SDS011;10835;50.148;19.760;2023-02-28T11:31:03;6.00;;;3.10;;
21354;SDS011;10835;50.148;19.760;2023-02-28T11:33:40;4.88;;;2.97;;
21354;SDS011;10835;50.148;19.760;2023-02-28T11:36:12;5.10;;;3.22;;
21354;SDS011;10835;50.148;19.760;2023-02-28T11:38:42;5.63;;;3.50;;
21354;SDS011;10835;50.148;19.760;2023-02-28T11:44:31;6.15;;;3.28;;
21354;SDS011;10835;50.148;19.760;2023-02-28T11:47:11;5.35;;;3.20;;
21354;SDS011;10835;50.148;19.760;2023-02-28T11:49:47;6.18;;;3.42;;
21354;SDS011;10835;50.148;19.760;2023-02-28T11:52:25;7.97;;;3.60;;
21354;SDS011;10835;50.148;19.760;2023-02-28T11:55:06;7.30;;;3.50;;
21354;SDS011;10835;50.148;19.760;2023-02-28T11:57:47;9.13;;;4.45;;
21354;SDS011;10835;50.148;19.760;2023-02-28T12:00:48;6.97;;;3.70;;
21354;SDS011;10835;50.148;19.760;2023-02-28T12:03:31;6.60;;;3.85;;
21354;SDS011;10835;50.148;19.760;2023-02-28T12:06:10;5.75;;;3.58;;
21354;SDS011;10835;50.148;19.760;2023-02-28T12:08:51;7.85;;;3.88;;
21354;SDS011;10835;50.148;19.760;2023-02-28T12:11:29;9.10;;;5.25;;
21354;SDS011;10835;50.148;19.760;2023-02-28T12:17:19;8.30;;;4.10;;
21354;SDS011;10835;50.148;19.760;2023-02-28T12:19:58;6.63;;;4.15;;
21354;SDS011;10835;50.148;19.760;2023-02-28T12:22:37;8.90;;;5.22;;
21354;SDS011;10835;50.148;19.760;2023-02-28T12:25:21;7.80;;;4.15;;
21354;SDS011;10835;50.148;19.760;2023-02-28T12:28:06;5.32;;;3.65;;
21354;SDS011;10835;50.148;19.760;2023-02-28T12:30:37;7.53;;;4.43;;
21354;SDS011;10835;50.148;19.760;2023-02-28T12:33:14;6.97;;;4.03;;
21354;SDS011;10835;50.148;19.760;2023-02-28T12:35:47;8.73;;;4.88;;
21354;SDS011;10835;50.148;19.760;2023-02-28T12:38:19;5.97;;;4.00;;
21354;SDS011;10835;50.148;19.760;2023-02-28T12:40:54;7.20;;;3.95;;
21354;SDS011;10835;50.148;19.760;2023-02-28T12:43:25;7.25;;;3.60;;
21354;SDS011;10835;50.148;19.760;2023-02-28T12:46:00;7.60;;;4.30;;
21354;SDS011;10835;50.148;19.760;2023-02-28T12:48:39;10.75;;;4.82;;
21354;SDS011;10835;50.148;19.760;2023-02-28T12:51:10;7.13;;;4.18;;
21354;SDS011;10835;50.148;19.760;2023-02-28T12:53:45;7.85;;;4.50;;
21354;SDS011;10835;50.148;19.760;2023-02-28T12:56:22;8.98;;;3.90;;
21354;SDS011;10835;50.148;19.760;2023-02-28T12:59:01;13.43;;;6.30;;
21354;SDS011;10835;50.148;19.760;2023-02-28T13:04:33;8.20;;;4.18;;
21354;SDS011;10835;50.148;19.760;2023-02-28T13:10:23;7.20;;;4.05;;
21354;SDS011;10835;50.148;19.760;2023-02-28T13:12:53;6.28;;;3.65;;
21354;SDS011;10835;50.148;19.760;2023-02-28T13:15:24;6.32;;;3.33;;
21354;SDS011;10835;50.148;19.760;2023-02-28T13:17:55;6.47;;;3.58;;
21354;SDS011;10835;50.148;19.760;2023-02-28T13:20:27;6.55;;;3.80;;
21354;SDS011;10835;50.148;19.760;2023-02-28T13:23:00;7.32;;;4.43;;
21354;SDS011;10835;50.148;19.760;2023-02-28T13:34:36;5.40;;;3.60;;
21354;SDS011;10835;50.148;19.760;2023-02-28T13:37:33;7.50;;;4.20;;
21354;SDS011;10835;50.148;19.760;2023-02-28T13:43:03;6.22;;;3.42;;
21354;SDS011;10835;50.148;19.760;2023-02-28T13:45:36;5.72;;;3.70;;
21354;SDS011;10835;50.148;19.760;2023-02-28T13:48:15;10.32;;;4.80;;
21354;SDS011;10835;50.148;19.760;2023-02-28T13:50:46;7.75;;;3.97;;
21354;SDS011;10835;50.148;19.760;2023-02-28T13:56:27;5.97;;;3.53;;
21354;SDS011;10835;50.148;19.760;2023-02-28T13:59:04;9.70;;;4.15;;
21354;SDS011;10835;50.148;19.760;2023-02-28T14:01:47;7.63;;;3.85;;
21354;SDS011;10835;50.148;19.760;2023-02-28T14:04:35;7.28;;;3.47;;
21354;SDS011;10835;50.148;19.760;2023-02-28T14:07:16;6.72;;;3.97;;
21354;SDS011;10835;50.148;19.760;2023-02-28T14:09:53;8.35;;;3.95;;
21354;SDS011;10835;50.148;19.760;2023-02-28T14:18:24;7.65;;;4.10;;
21354;SDS011;10835;50.148;19.760;2023-02-28T14:20:57;7.20;;;4.45;;
21354;SDS011;10835;50.148;19.760;2023-02-28T14:23:34;8.27;;;4.38;;
21354;SDS011;10835;50.148;19.760;2023-02-28T14:26:31;8.10;;;4.05;;
21354;SDS011;10835;50.148;19.760;2023-02-28T14:29:24;9.25;;;3.65;;
21354;SDS011;10835;50.148;19.760;2023-02-28T14:32:06;8.10;;;3.25;;
21354;SDS011;10835;50.148;19.760;2023-02-28T14:34:42;9.13;;;3.50;;
21354;SDS011;10835;50.148;19.760;2023-02-28T14:37:19;7.35;;;3.70;;
21354;SDS011;10835;50.148;19.760;2023-02-28T14:39:51;16.80;;;3.75;;
21354;SDS011;10835;50.148;19.760;2023-02-28T14:42:29;7.20;;;3.90;;
21354;SDS011;10835;50.148;19.760;2023-02-28T14:44:59;8.40;;;3.60;;
21354;SDS011;10835;50.148;19.760;2023-02-28T14:47:28;7.18;;;4.05;;
21354;SDS011;10835;50.148;19.760;2023-02-28T14:49:59;9.30;;;4.05;;
21354;SDS011;10835;50.148;19.760;2023-02-28T14:52:31;5.07;;;3.15;;
21354;SDS011;10835;50.148;19.760;2023-02-28T14:55:01;8.05;;;3.88;;
21354;SDS011;10835;50.148;19.760;2023-02-28T14:57:41;5.82;;;3.67;;
21354;SDS011;10835;50.148;19.760;2023-02-28T15:00:20;5.88;;;3.55;;
21354;SDS011;10835;50.148;19.760;2023-02-28T15:02:50;11.27;;;4.68;;
21354;SDS011;10835;50.148;19.760;2023-02-28T15:05:24;7.18;;;3.28;;
21354;SDS011;10835;50.148;19.760;2023-02-28T15:08:06;4.53;;;2.80;;
21354;SDS011;10835;50.148;19.760;2023-02-28T15:10:40;10.20;;;3.92;;
21354;SDS011;10835;50.148;19.760;2023-02-28T15:13:12;6.38;;;3.40;;
21354;SDS011;10835;50.148;19.760;2023-02-28T15:15:43;6.88;;;4.00;;
21354;SDS011;10835;50.148;19.760;2023-02-28T15:18:31;7.10;;;3.92;;
21354;SDS011;10835;50.148;19.760;2023-02-28T15:21:14;8.80;;;4.38;;
21354;SDS011;10835;50.148;19.760;2023-02-28T15:23:45;10.85;;;4.88;;
21354;SDS011;10835;50.148;19.760;2023-02-28T15:26:16;15.57;;;6.05;;
21354;SDS011;10835;50.148;19.760;2023-02-28T15:28:50;27.00;;;10.52;;
21354;SDS011;10835;50.148;19.760;2023-02-28T15:31:22;12.98;;;6.18;;
21354;SDS011;10835;50.148;19.760;2023-02-28T15:34:02;9.10;;;4.65;;
21354;SDS011;10835;50.148;19.760;2023-02-28T15:36:33;8.45;;;5.00;;
21354;SDS011;10835;50.148;19.760;2023-02-28T15:39:16;11.43;;;4.55;;
21354;SDS011;10835;50.148;19.760;2023-02-28T15:41:48;7.38;;;4.20;;
21354;SDS011;10835;50.148;19.760;2023-02-28T15:44:23;6.43;;;3.92;;